KMIW/MIW METAR and TAF weather

Enter ICAO airport designator
Station Type Date Time Source
KMIW METAR 2019/12/08 06:53 UTC NOAA

KMIW 080653Z AUTO 19013G23KT 10SM CLR 02/M02 A2988 RMK AO2 SLP125 T00221017 $


Station Type Date Time Source
KMIW Decoded METAR 2019/12/08 06:53 UTC NOAA

MARSHALLTOWN MUNICIPAL AIRPORT , IA, United States (KMIW) 42-07N 92-55W 296M
Dec 08, 2019 - 01:53 AM EST / 2019.12.08 0653 UTC
Wind: from the S (190 degrees) at 15 MPH (13 KT) gusting to 26 MPH (23 KT):0
Visibility: 10 mile(s):0
Sky conditions: clear
Temperature: 36.0 F (2.2 C)
Dew Point: 28.9 F (-1.7 C)
Relative Humidity: 75%
Pressure (altimeter): 29.88 in. Hg (1011 hPa)
ob: KMIW 080653Z AUTO 19013G23KT 10SM CLR 02/M02 A2988 RMK AO2 SLP125 T00221017
cycle: 7

Station Type Date Time Source
KMIW TAF UTC NOAA

Error!

Example: see airport list